Flight Track Log - Related Links

Times and Time Zones

All times are in EDT time to prevent confusion due to time zone crossing. See the ASQ6041 flight status page for this flight to view local times or setup timezone preferences in your user account.

Time Position Orientation Groundspeed Altitude Reporting Facility
EDT Latitude Longitude Course Direction KTS MPH feet Rate Location/Type
Sat 02:11:59 PM 40.8869 -96.8292 299° West 226 260 3,600  Level Minneapolis Center
Sat 02:13:25 PM 40.8797 -96.9631 266° West 256 295 6,900 2,392 Climbing Minneapolis Center
Sat 02:14:00 PM 40.8501 -97.1328 263° West  Level FlightAware Approximate
Sat 02:14:27 PM 40.8633 -97.0600 257° West 263 303 9,500  Level Minneapolis Center
Sat 02:15:00 PM 40.8223 -97.2538 253° West  Level FlightAware Approximate
Sat 02:15:29 PM 40.8608 -97.1664 268° West 273 314 10,700  Level Minneapolis Center
Sat 02:16:00 PM 40.7956 -97.3751 257° West  Level FlightAware Approximate
Sat 02:16:31 PM 40.8617 -97.2958 271° West 315 362 12,000  Level Minneapolis Center
Sat 02:17:33 PM 40.8614 -97.4267 270° West 341 392 14,000 1,839 Climbing Minneapolis Center
Sat 02:18:35 PM 40.8597 -97.5558 269° West 349 402 15,800 1,935 Climbing Minneapolis Center
Sat 02:19:37 PM 40.8581 -97.7128 269° West 353 406 18,000 1,935 Climbing Minneapolis Center
Sat 02:20:39 PM 40.8572 -97.8433 270° West 355 409 19,800 1,742 Climbing Minneapolis Center
Sat 02:21:41 PM 40.8553 -97.9728 269° West 353 406 21,600 1,756 Climbing Minneapolis Center
Sat 02:22:42 PM 40.8528 -98.1011 269° West 351 404 23,400 1,707 Climbing Minneapolis Center
Sat 02:23:44 PM 40.8508 -98.2272 269° West 348 400 25,100 1,597 Climbing Minneapolis Center
Sat 02:24:46 PM 40.8481 -98.3522 268° West 344 396 26,700 1,452 Climbing Minneapolis Center
Sat 02:25:48 PM 40.8467 -98.4778 269° West 344 396 28,100 1,597 Climbing Minneapolis Center
Sat 02:26:50 PM 40.8436 -98.6336 269° West 352 405 30,000 1,887 Climbing Minneapolis Center
Sat 02:27:52 PM 40.8403 -98.7581 268° West 345 397 32,000 1,694 Climbing Minneapolis Center
Sat 02:28:54 PM 40.8383 -98.8767 269° West 330 380 33,500 968 Climbing Minneapolis Center
Sat 02:29:56 PM 40.8353 -98.9964 268° West 326 375 34,000 242 Climbing Minneapolis Center
Sat 02:30:58 PM 40.8322 -99.1403 268° West 356 410 34,000  Level Minneapolis Center
Sat 02:31:47 PM 40.8286 -99.2569 268° West 384 442 34,000 108 Level Denver Center
Sat 02:32:49 PM 40.8256 -99.4103 269° West 411 473 34,200 585 Climbing Denver Center
Sat 02:33:50 PM 40.8219 -99.5639 268° West 417 480 35,200 878 Climbing Denver Center
Sat 02:34:52 PM 40.8172 -99.7128 268° West 409 471 36,000 387 Climbing Denver Center
Sat 02:35:54 PM 40.8125 -99.8886 268° West 414 476 36,000  Level Denver Center
Sat 02:36:56 PM 40.8078 -100.0361 268° West 420 483 36,000  Level Denver Center
Sat 02:37:57 PM 40.8019 -100.2067 267° West 416 479 36,000  Level Denver Center
Sat 02:38:59 PM 40.7975 -100.3514 268° West 414 476 36,000  Level Denver Center
Sat 02:40:01 PM 40.7914 -100.5200 267° West 411 473 36,000  Level Denver Center
Sat 02:41:03 PM 40.7858 -100.6411 267° West 412 474 36,000  Level Denver Center
Sat 02:42:05 PM 40.7567 -100.8233 258° West 438 504 36,000  Level Denver Center
Sat 02:43:06 PM 40.7350 -100.9681 259° West 420 483 36,000  Level Denver Center
Sat 02:44:08 PM 40.7067 -101.1381 258° West 423 487 36,000  Level Denver Center
Sat 02:45:10 PM 40.6814 -101.2839 257° West 426 490 36,000  Level Denver Center
Sat 02:46:12 PM 40.6519 -101.4525 257° West 424 488 36,000 -290 Level Denver Center
Sat 02:47:14 PM 40.6261 -101.5983 257° West 426 490 35,400 -829 Descending Denver Center
Sat 02:48:15 PM 40.5961 -101.7644 257° West 420 483 34,300 -683 Descending Denver Center
Sat 02:49:17 PM 40.5708 -101.9058 257° West 416 479 34,000 -145 Descending Denver Center
Sat 02:50:19 PM 40.5389 -102.0694 256° West 415 478 34,000  Level Denver Center
Sat 02:51:21 PM 40.5131 -102.2136 257° West 422 486 34,000  Level Denver Center
Sat 02:52:23 PM 40.4856 -102.3578 256° West 425 489 34,000  Level Denver Center
Sat 02:53:24 PM 40.4556 -102.5256 257° West 423 487 34,000  Level Denver Center
Sat 02:54:26 PM 40.4256 -102.6858 256° West 427 491 34,000  Level Denver Center
Sat 02:55:28 PM 40.3975 -102.8356 256° West 424 488 34,000 -146 Level Denver Center
Sat 02:56:29 PM 40.3681 -102.9869 256° West 429 494 33,700 -1,122 Descending Denver Center
Sat 02:57:31 PM 40.3392 -103.1369 256° West 426 490 31,700 -1,839 Descending Denver Center
Sat 02:58:33 PM 40.3114 -103.2856 256° West 423 487 29,900 -2,390 Descending Denver Center
Sat 02:59:34 PM 40.2836 -103.4253 255° West 401 461 26,800 -3,415 Descending Denver Center
Sat 03:00:36 PM 40.2581 -103.5606 256° West 385 443 22,900 -3,194 Descending Denver Center
Sat 03:01:38 PM 40.2272 -103.7161 255° West 371 427 20,200 -1,415 Descending Denver Center
Sat 03:02:39 PM 40.2000 -103.8447 255° West 365 420 20,000 -780 Descending Denver Center
Sat 03:03:41 PM 40.1575 -103.9472 242° Southwest 323 372 18,600 -1,561 Descending Denver Center
Sat 03:04:42 PM 40.1097 -104.0481 238° Southwest 329 379 16,800 -1,561 Descending Denver Center
Sat 03:05:44 PM 40.0603 -104.1561 239° Southwest 321 369 15,400 -1,171 Descending Denver Center
Sat 03:06:45 PM 40.0156 -104.2519 239° Southwest 310 357 14,400 -976 Descending Denver Center
Sat 03:07:47 PM 39.9700 -104.3494 239° Southwest 316 364 13,400 -927 Descending Denver Center
Sat 03:08:48 PM 39.9206 -104.4536 238° Southwest 314 361 12,500 -1,024 Descending Denver Center
Sat 03:09:50 PM 39.8500 -104.4997 207° Southwest 289 333 11,300 -1,024 Descending Denver Center
Sat 03:10:51 PM 39.7764 -104.5019 181° South 256 295 10,400 -1,171 Descending Denver Center
Sat 03:11:53 PM 39.7069 -104.5033 181° South 252 290 8,900 -1,171 Descending Denver Center
Sat 03:12:54 PM 39.6828 -104.5828 248° West 242 278 8,000 -878 Descending Denver Center
Sat 03:13:56 PM 39.7317 -104.6356 320° Northwest 234 269 7,100 -706 Descending Denver Center
Sat 03:15:10 PM 39.7783 -104.6419 354° North 165 190 6,400 -711 Descending Denver Center
Sat 03:16:11 PM 39.8308 -104.6414 360° North 145 167 5,500 -885 Descending Denver Center

Login

Don't have an account? Register now (free) for customized features, flight alerts, and more!